Time;durP1;ratioP1;P1;durP2;ratioP2;P2;SDS_P1;SDS_P2;PMS_P1;PMS_P2;Temp;Humidity;BMP_temperature;BMP_pressure;BME280_temperature;BME280_humidity;BME280_pressure;Samples;Min_cycle;Max_cycle;Signal;HPM_P1;HPM_P2
2020/12/05 00:00:50;;;;;;;4.55;2.80;;;;;;;5.50;51.60;93149.16;5072933;28;20047;-53
2020/12/05 00:03:16;;;;;;;5.10;2.70;;;;;;;5.41;51.54;93129.91;5073858;28;20083;-51
2020/12/05 00:05:43;;;;;;;6.10;2.60;;;;;;;5.47;50.79;93142.63;5072783;28;20048;-50
2020/12/05 00:08:09;;;;;;;4.43;2.78;;;;;;;5.43;51.04;93141.03;5073311;28;20102;-49
2020/12/05 00:10:36;;;;;;;4.97;2.58;;;;;;;5.55;51.04;93151.50;5073468;28;20072;-46
2020/12/05 00:13:03;;;;;;;4.60;2.42;;;;;;;5.52;50.99;93160.28;5073690;28;20048;-49
2020/12/05 00:15:29;;;;;;;4.85;2.70;;;;;;;5.50;51.22;93167.94;5072827;28;20094;-52
2020/12/05 00:17:56;;;;;;;4.30;2.53;;;;;;;5.47;51.00;93174.78;5073335;28;20132;-53
2020/12/05 00:20:22;;;;;;;4.07;2.40;;;;;;;5.48;51.15;93170.19;5073307;28;20090;-47
2020/12/05 00:22:49;;;;;;;5.68;2.70;;;;;;;5.55;51.14;93151.50;5072465;28;20078;-47
2020/12/05 00:25:16;;;;;;;5.95;2.72;;;;;;;5.26;52.32;93145.81;5073027;28;20059;-50
2020/12/05 00:27:42;;;;;;;5.07;2.80;;;;;;;5.31;51.84;93125.97;5073021;28;20087;-52
2020/12/05 00:30:09;;;;;;;5.75;2.67;;;;;;;5.25;51.96;93097.94;5073178;28;20051;-50
2020/12/05 00:32:35;;;;;;;3.60;2.17;;;;;;;5.18;52.35;93108.59;5073045;28;20055;-52
2020/12/05 00:35:03;;;;;;;4.38;2.28;;;;;;;5.32;51.33;93098.78;5073018;28;20127;-52
2020/12/05 00:37:32;;;;;;;3.95;2.22;;;;;;;5.29;51.77;93109.47;5072266;28;20060;-50
2020/12/05 00:39:59;;;;;;;3.97;2.38;;;;;;;5.37;51.62;93116.47;5073109;28;20040;-50
2020/12/05 00:42:26;;;;;;;4.10;2.40;;;;;;;5.25;51.69;93116.72;5072047;28;20055;-52
2020/12/05 00:44:54;;;;;;;5.15;2.85;;;;;;;5.23;51.77;93110.94;5073076;28;20068;-49
2020/12/05 00:47:20;;;;;;;4.55;2.25;;;;;;;5.23;51.92;93098.34;5072463;28;20048;-47
2020/12/05 00:49:47;;;;;;;4.22;2.22;;;;;;;5.09;52.45;93100.84;5072144;28;20036;-51
2020/12/05 00:52:14;;;;;;;5.93;2.15;;;;;;;5.10;52.45;93087.09;5071587;28;20048;-48
2020/12/05 00:54:41;;;;;;;5.03;2.65;;;;;;;5.28;52.13;93108.72;5071513;28;20059;-51
2020/12/05 00:57:08;;;;;;;4.10;2.60;;;;;;;5.34;52.25;93101.13;5070713;28;20570;-46
2020/12/05 00:59:34;;;;;;;4.18;2.55;;;;;;;5.33;51.81;93097.66;5071367;28;20470;-51
2020/12/05 01:02:00;;;;;;;4.63;2.42;;;;;;;5.25;51.90;93074.59;5072523;28;20087;-50
2020/12/05 01:04:28;;;;;;;4.65;2.92;;;;;;;5.27;51.89;93080.38;5072452;28;20049;-49
2020/12/05 01:06:55;;;;;;;6.63;2.53;;;;;;;5.34;51.95;93101.88;5071431;28;20055;-51
2020/12/05 01:09:22;;;;;;;4.30;2.55;;;;;;;5.48;51.75;93087.84;5071866;28;20040;-54
2020/12/05 01:11:48;;;;;;;5.93;3.03;;;;;;;5.38;51.77;93081.22;5070786;28;20048;-50
2020/12/05 01:14:15;;;;;;;4.15;2.25;;;;;;;5.36;52.20;93093.47;5071605;28;20053;-49
2020/12/05 01:16:44;;;;;;;6.30;2.72;;;;;;;5.41;52.12;93090.47;5071835;28;20397;-52
2020/12/05 01:19:11;;;;;;;5.15;2.90;;;;;;;5.29;52.19;93088.78;5071803;28;20127;-50
2020/12/05 01:21:37;;;;;;;4.72;2.63;;;;;;;5.21;52.45;93097.91;5072260;28;20084;-47
2020/12/05 01:24:04;;;;;;;6.53;2.90;;;;;;;5.05;52.72;93092.00;5072281;28;20056;-50
2020/12/05 01:26:30;;;;;;;4.55;2.75;;;;;;;5.10;53.04;93089.78;5071440;28;20053;-46
2020/12/05 01:28:56;;;;;;;4.75;2.90;;;;;;;5.17;52.79;93102.47;5071932;28;20052;-47
2020/12/05 01:31:23;;;;;;;6.03;3.00;;;;;;;5.17;52.90;93097.13;5071898;28;20048;-53
2020/12/05 01:33:49;;;;;;;4.95;2.80;;;;;;;5.15;52.99;93100.16;5071848;28;20048;-54
2020/12/05 01:36:18;;;;;;;6.30;3.08;;;;;;;5.22;53.11;93120.91;5071233;28;20048;-54
2020/12/05 01:38:45;;;;;;;4.90;2.70;;;;;;;5.30;52.79;93124.44;5071730;28;20056;-51
2020/12/05 01:41:11;;;;;;;5.43;2.70;;;;;;;5.23;52.61;93114.41;5071488;28;20498;-49
2020/12/05 01:43:40;;;;;;;6.30;2.60;;;;;;;5.30;52.87;93116.41;5071699;28;20052;-47
2020/12/05 01:46:35;;;;;;;3.90;2.40;;;;;;;5.21;53.37;93111.31;5071336;28;20074;-47
2020/12/05 01:49:02;;;;;;;4.72;2.60;;;;;;;5.25;52.93;93114.03;5071500;28;20510;-52
2020/12/05 01:51:30;;;;;;;4.65;2.60;;;;;;;5.25;52.63;93135.47;5071731;28;20056;-51
2020/12/05 01:53:57;;;;;;;4.20;2.88;;;;;;;5.08;53.11;93142.19;5071486;28;20144;-49
2020/12/05 01:56:25;;;;;;;4.72;2.60;;;;;;;5.02;54.34;93130.25;5070794;28;20581;-52
2020/12/05 01:58:52;;;;;;;5.43;2.65;;;;;;;4.88;53.87;93128.19;5071418;28;20053;-50
2020/12/05 02:01:27;;;;;;;5.50;2.78;;;;;;;4.91;53.93;93132.81;5071507;28;20049;-50
2020/12/05 02:03:58;;;;;;;4.80;2.88;;;;;;;4.52;54.78;93143.00;5071327;28;20040;-54
2020/12/05 02:06:53;;;;;;;5.43;3.22;;;;;;;4.63;54.96;93143.91;5069511;28;20470;-52
2020/12/05 02:09:25;;;;;;;5.40;3.15;;;;;;;4.46;55.35;93147.91;5071313;28;20127;-49
2020/12/05 02:12:26;;;;;;;5.32;2.80;;;;;;;4.53;55.32;93133.84;5071423;28;20048;-51
2020/12/05 02:15:00;;;;;;;5.13;2.80;;;;;;;4.62;55.57;93153.09;5071384;28;20083;-50
2020/12/05 02:17:29;;;;;;;5.20;2.70;;;;;;;4.48;56.10;93163.59;5070739;28;20451;-49
2020/12/05 02:19:56;;;;;;;6.65;3.10;;;;;;;4.55;56.03;93185.09;5071246;28;20055;-45
2020/12/05 02:22:27;;;;;;;6.05;2.70;;;;;;;4.18;56.80;93188.38;5071473;28;20076;-50
2020/12/05 02:24:57;;;;;;;4.80;2.85;;;;;;;3.95;56.90;93191.06;5073929;28;20171;-51
2020/12/05 02:27:25;;;;;;;6.18;3.30;;;;;;;4.24;56.50;93208.38;5074729;28;20502;-47
2020/12/05 02:29:51;;;;;;;4.95;2.67;;;;;;;4.28;56.09;93184.34;5075759;28;20412;-49
2020/12/05 02:32:18;;;;;;;4.80;2.60;;;;;;;4.16;56.42;93169.22;5075628;28;20428;-54
2020/12/05 02:34:44;;;;;;;6.53;3.15;;;;;;;4.00;57.09;93172.06;5075256;28;20135;-54
2020/12/05 02:37:13;;;;;;;4.93;2.63;;;;;;;3.76;57.99;93183.88;5074516;28;20131;-50
2020/12/05 02:39:44;;;;;;;4.70;2.60;;;;;;;4.00;57.27;93177.41;5075045;28;20131;-53
2020/12/05 02:42:14;;;;;;;4.07;2.38;;;;;;;4.19;56.84;93184.56;5075188;28;20138;-47
2020/12/05 02:44:50;;;;;;;5.35;2.55;;;;;;;4.27;56.66;93202.31;5075423;28;20454;-51
2020/12/05 02:47:17;;;;;;;4.90;2.80;;;;;;;4.31;56.54;93207.72;5074369;28;20133;-50
2020/12/05 02:49:44;;;;;;;4.95;2.97;;;;;;;4.18;56.63;93209.78;5075044;28;20055;-53
2020/12/05 02:52:11;;;;;;;5.80;2.53;;;;;;;4.10;56.63;93218.84;5073716;28;20135;-50
2020/12/05 02:54:38;;;;;;;4.55;2.72;;;;;;;3.98;57.32;93227.81;5074761;28;20538;-49
2020/12/05 02:57:05;;;;;;;5.25;2.92;;;;;;;3.52;58.83;93225.09;5072768;28;20131;-50
2020/12/05 02:59:32;;;;;;;4.60;2.55;;;;;;;3.60;59.21;93239.34;5074918;28;20509;-51
2020/12/05 03:01:59;;;;;;;5.13;2.80;;;;;;;3.84;58.34;93259.69;5075680;28;20086;-46
2020/12/05 03:04:26;;;;;;;5.38;3.13;;;;;;;3.72;58.29;93268.63;5074582;28;20052;-50
2020/12/05 03:06:53;;;;;;;4.75;2.75;;;;;;;3.72;58.57;93287.34;5073814;28;20048;-50
2020/12/05 03:09:20;;;;;;;7.40;3.38;;;;;;;3.24;60.58;93278.75;5074456;28;20068;-47
2020/12/05 03:11:46;;;;;;;9.65;3.85;;;;;;;3.28;60.22;93287.59;5074357;28;20067;-49
2020/12/05 03:14:13;;;;;;;9.35;5.97;;;;;;;2.77;61.94;93304.47;5073411;28;20444;-51
2020/12/05 03:16:39;;;;;;;10.00;6.30;;;;;;;2.51;63.16;93326.34;5073442;28;20127;-49
2020/12/05 03:19:05;;;;;;;15.15;9.02;;;;;;;2.08;65.14;93319.97;5074227;28;20132;-48
2020/12/05 03:21:32;;;;;;;16.25;9.73;;;;;;;1.99;66.27;93346.00;5074384;28;20051;-47
2020/12/05 03:23:59;;;;;;;18.73;11.85;;;;;;;1.94;66.96;93382.81;5074410;28;20464;-50
2020/12/05 03:26:26;;;;;;;26.63;15.82;;;;;;;1.69;68.43;93382.09;5073490;28;20367;-53
2020/12/05 03:28:54;;;;;;;27.38;16.90;;;;;;;1.38;69.92;93394.19;5074047;28;20571;-52
2020/12/05 03:33:58;;;;;;;28.90;16.92;;;;;;;1.35;70.33;93422.25;5074186;28;20109;-53
2020/12/05 03:36:25;;;;;;;26.60;16.80;;;;;;;1.07;71.39;93419.53;5072414;28;20048;-47
2020/12/05 03:38:53;;;;;;;29.52;18.00;;;;;;;1.08;71.88;93450.38;5073800;28;20099;-45
2020/12/05 03:41:23;;;;;;;31.02;18.20;;;;;;;1.13;71.76;93465.34;5072747;28;20076;-48
2020/12/05 03:43:50;;;;;;;30.73;18.42;;;;;;;1.14;72.06;93465.00;5074040;28;20052;-49
2020/12/05 03:46:17;;;;;;;28.15;17.30;;;;;;;1.08;72.19;93492.97;5071754;28;20064;-50
2020/12/05 03:48:44;;;;;;;29.50;17.73;;;;;;;1.12;72.04;93504.50;5073532;28;20064;-48
2020/12/05 03:51:10;;;;;;;33.50;18.55;;;;;;;1.03;72.87;93501.16;5074068;28;20409;-50
2020/12/05 03:53:37;;;;;;;29.20;18.10;;;;;;;0.98;72.80;93482.00;5073725;28;20053;-46
2020/12/05 03:56:04;;;;;;;32.30;17.58;;;;;;;0.95;73.63;93511.94;5072864;28;20058;-47
2020/12/05 03:58:30;;;;;;;29.00;17.25;;;;;;;1.20;72.92;93510.06;5073433;28;20052;-47
2020/12/05 04:00:57;;;;;;;28.52;17.23;;;;;;;1.11;73.19;93528.81;5073396;28;20132;-45
2020/12/05 04:03:24;;;;;;;30.58;18.02;;;;;;;1.20;73.09;93552.66;5073413;28;20076;-50
2020/12/05 04:05:50;;;;;;;31.02;18.05;;;;;;;1.30;73.05;93536.25;5073211;28;20079;-45
2020/12/05 04:08:17;;;;;;;30.40;18.08;;;;;;;1.21;73.25;93543.59;5091283;22;20066;-51
2020/12/05 04:10:43;;;;;;;27.83;18.27;;;;;;;1.31;72.98;93549.25;5093649;28;20051;-49
2020/12/05 04:13:11;;;;;;;31.35;18.85;;;;;;;1.31;72.87;93575.91;5093584;28;20079;-50
2020/12/05 04:15:37;;;;;;;28.30;16.77;;;;;;;1.47;72.70;93573.38;5092922;28;20181;-50
2020/12/05 04:18:04;;;;;;;26.73;17.50;;;;;;;1.60;71.94;93579.47;5093730;28;20163;-49
2020/12/05 04:20:31;;;;;;;29.00;17.85;;;;;;;1.49;72.65;93597.78;5093431;28;20048;-50
2020/12/05 04:22:57;;;;;;;30.05;18.10;;;;;;;1.22;72.54;93548.56;5092687;28;20129;-43
2020/12/05 04:25:24;;;;;;;30.27;17.73;;;;;;;1.64;72.19;93599.78;5093175;28;20512;-44
2020/12/05 04:27:52;;;;;;;28.02;17.52;;;;;;;1.51;72.96;93600.91;5093665;28;20131;-44
2020/12/05 04:30:19;;;;;;;28.67;18.83;;;;;;;1.60;72.40;93588.25;5093161;28;20072;-51
2020/12/05 04:32:45;;;;;;;29.52;17.38;;;;;;;1.67;72.32;93622.34;5093215;28;20497;-48
2020/12/05 04:35:11;;;;;;;29.23;18.35;;;;;;;1.82;72.31;93642.22;5093367;28;20048;-50
2020/12/05 04:37:38;;;;;;;28.98;18.55;;;;;;;1.83;72.13;93643.78;5091168;28;20098;-50
2020/12/05 04:40:05;;;;;;;26.70;16.90;;;;;;;1.92;72.03;93649.81;5093265;28;20052;-49
2020/12/05 04:42:32;;;;;;;28.88;18.10;;;;;;;2.00;72.04;93646.25;5093674;28;20052;-45
2020/12/05 04:44:58;;;;;;;28.42;18.63;;;;;;;2.00;72.27;93653.47;5093050;28;20135;-49
2020/12/05 04:47:25;;;;;;;32.53;19.77;;;;;;;1.89;72.77;93663.81;5090915;28;20052;-49
2020/12/05 04:49:56;;;;;;;28.65;17.80;;;;;;;1.93;72.14;93686.03;5093199;28;20048;-51
2020/12/05 04:52:36;;;;;;;31.80;19.48;;;;;;;1.98;72.51;93682.34;5092975;28;20048;-47
2020/12/05 04:55:03;;;;;;;29.35;18.77;;;;;;;2.03;72.44;93685.56;5093100;28;20143;-44
2020/12/05 04:57:38;;;;;;;32.53;18.75;;;;;;;2.24;71.94;93679.34;5092369;28;20127;-49
2020/12/05 05:00:06;;;;;;;30.33;18.52;;;;;;;2.36;71.46;93682.00;5092600;28;20139;-46
2020/12/05 05:02:40;;;;;;;31.88;18.33;;;;;;;2.20;72.28;93668.56;5092971;28;20048;-47
2020/12/05 05:05:10;;;;;;;29.98;18.77;;;;;;;2.06;72.83;93679.56;5092678;28;20054;-45
2020/12/05 05:07:47;;;;;;;28.42;18.10;;;;;;;2.09;72.12;93678.91;5092092;28;20127;-45
2020/12/05 05:10:24;;;;;;;29.85;18.25;;;;;;;2.41;71.92;93711.16;5093984;28;20048;-47
2020/12/05 05:12:52;;;;;;;31.77;20.90;;;;;;;2.37;71.98;93728.94;5092913;28;20123;-46
2020/12/05 05:15:28;;;;;;;27.95;17.90;;;;;;;2.40;71.69;93730.94;5091761;28;20062;-49
2020/12/05 05:18:03;;;;;;;31.75;19.90;;;;;;;2.29;72.37;93748.50;5092577;28;20131;-45
2020/12/05 05:20:35;;;;;;;34.10;19.33;;;;;;;2.28;72.54;93753.06;5092519;28;20044;-48
2020/12/05 05:23:18;;;;;;;29.45;19.20;;;;;;;2.57;71.82;93768.09;5092722;28;20082;-50
2020/12/05 05:25:49;;;;;;;30.85;19.27;;;;;;;2.67;71.37;93780.22;5091877;28;20135;-47
2020/12/05 05:28:29;;;;;;;31.17;20.55;;;;;;;2.23;73.11;93787.97;5092157;28;20054;-47
2020/12/05 05:31:01;;;;;;;31.42;19.88;;;;;;;2.33;73.39;93789.41;5093223;28;20055;-45
2020/12/05 05:33:44;;;;;;;31.20;20.15;;;;;;;2.24;73.72;93786.06;5092253;28;20101;-45
2020/12/05 05:36:30;;;;;;;34.10;21.45;;;;;;;2.40;73.49;93788.88;5091652;28;20079;-45
2020/12/05 05:39:11;;;;;;;32.60;19.80;;;;;;;2.42;73.39;93797.34;5091850;28;20457;-48
2020/12/05 05:41:38;;;;;;;36.38;21.73;;;;;;;1.98;74.83;93784.50;5092203;28;20103;-46
2020/12/05 05:44:14;;;;;;;30.92;20.40;;;;;;;2.35;73.76;93792.53;5092364;28;20048;-46
2020/12/05 05:46:48;;;;;;;30.17;20.20;;;;;;;2.56;72.91;93803.88;5091423;28;20087;-48
2020/12/05 05:49:24;;;;;;;34.10;20.13;;;;;;;2.72;72.20;93816.56;5091834;28;20535;-45
2020/12/05 05:51:51;;;;;;;35.35;20.77;;;;;;;2.72;72.03;93808.56;5091977;28;20572;-47
2020/12/05 05:54:27;;;;;;;33.70;20.40;;;;;;;2.91;71.78;93834.72;5091780;28;20075;-45
2020/12/05 05:56:57;;;;;;;34.45;20.40;;;;;;;2.91;71.65;93838.16;5091051;28;20063;-45
2020/12/05 05:59:26;;;;;;;33.58;21.27;;;;;;;2.83;71.53;93848.94;5091004;28;20059;-47
2020/12/05 06:01:53;;;;;;;34.80;21.63;;;;;;;2.84;71.86;93867.31;5091903;28;20044;-47
2020/12/05 06:04:35;;;;;;;30.35;19.92;;;;;;;3.25;70.57;93870.84;5092277;28;20058;-44
2020/12/05 06:07:03;;;;;;;33.72;19.90;;;;;;;3.03;70.38;93848.84;5092106;28;20161;-44
2020/12/05 06:09:40;;;;;;;35.13;22.20;;;;;;;3.13;70.57;93873.56;5091887;28;20572;-46
2020/12/05 06:12:10;;;;;;;31.38;20.33;;;;;;;3.32;69.78;93902.41;5092054;28;20082;-48
2020/12/05 06:14:39;;;;;;;32.67;20.25;;;;;;;3.32;69.82;93897.06;5091718;28;20512;-47
2020/12/05 06:17:07;;;;;;;35.13;20.98;;;;;;;3.40;69.46;93926.31;5091558;28;20520;-47
2020/12/05 06:19:34;;;;;;;31.45;20.05;;;;;;;3.41;69.25;93919.06;5091844;28;20497;-51
2020/12/05 06:22:00;;;;;;;32.38;20.90;;;;;;;3.47;69.19;93904.38;5091883;28;20098;-47
2020/12/05 06:24:44;;;;;;;34.67;20.50;;;;;;;3.18;70.28;93876.00;5091980;28;20052;-51
2020/12/05 06:27:13;;;;;;;33.08;20.67;;;;;;;3.01;71.10;93883.13;5090957;28;20056;-46
2020/12/05 06:29:41;;;;;;;31.52;21.15;;;;;;;3.19;70.38;93898.94;5091979;28;20052;-45
2020/12/05 06:32:07;;;;;;;35.08;21.30;;;;;;;3.32;69.80;93894.38;5091599;28;20139;-50
2020/12/05 06:34:36;;;;;;;33.03;21.27;;;;;;;2.94;71.40;93882.91;5091593;28;20048;-49
2020/12/05 06:37:04;;;;;;;35.25;21.52;;;;;;;3.02;71.21;93852.66;5090628;28;20524;-50
2020/12/05 06:39:30;;;;;;;33.45;20.50;;;;;;;3.27;70.42;93841.91;5090768;28;20052;-44
2020/12/05 06:41:56;;;;;;;32.00;20.20;;;;;;;3.32;69.55;93841.69;5091656;28;20040;-44
2020/12/05 06:44:43;;;;;;;31.48;19.83;;;;;;;3.72;68.74;93892.50;5091716;28;20079;-44
2020/12/05 06:47:22;;;;;;;31.13;20.58;;;;;;;3.74;68.25;93876.13;5090832;28;20083;-48
2020/12/05 06:49:50;;;;;;;30.85;19.80;;;;;;;3.78;68.17;93902.97;5091484;28;20047;-46
2020/12/05 06:52:26;;;;;;;30.73;21.10;;;;;;;3.62;68.75;93929.66;5090348;28;20048;-45
2020/12/05 06:55:07;;;;;;;33.63;21.23;;;;;;;3.66;69.05;93951.91;5091696;28;20500;-46
2020/12/05 06:57:34;;;;;;;40.22;25.33;;;;;;;3.69;68.33;93975.31;5090715;28;20040;-49
2020/12/05 07:00:20;;;;;;;32.03;20.42;;;;;;;3.58;69.28;93996.38;5091238;28;20387;-46
2020/12/05 07:02:57;;;;;;;29.30;19.65;;;;;;;3.39;69.17;93977.44;5091979;28;20135;-48
2020/12/05 07:05:44;;;;;;;34.45;20.95;;;;;;;3.31;69.37;93976.44;5090687;28;20144;-44
2020/12/05 07:08:21;;;;;;;33.65;20.83;;;;;;;3.41;69.92;94008.09;5090087;28;20086;-49
2020/12/05 07:10:55;;;;;;;33.38;21.23;;;;;;;3.41;69.75;93996.59;5093520;28;20055;-45
2020/12/05 07:13:49;;;;;;;31.63;21.25;;;;;;;3.40;69.79;93984.34;5095319;28;20461;-45
2020/12/05 07:16:21;;;;;;;34.85;21.38;;;;;;;3.17;71.06;93984.00;5091273;28;20047;-46
2020/12/05 07:18:53;;;;;;;33.00;21.30;;;;;;;2.91;72.17;93987.75;5094695;28;20052;-46
2020/12/05 07:21:21;;;;;;;34.88;20.98;;;;;;;2.58;72.79;93956.50;5093505;28;20159;-45
2020/12/05 07:23:48;;;;;;;34.67;20.73;;;;;;;2.73;72.83;93984.50;5095179;28;20048;-46
2020/12/05 07:26:15;;;;;;;34.80;21.60;;;;;;;2.82;72.49;94016.44;5094105;28;20048;-44
2020/12/05 07:28:46;;;;;;;31.58;21.85;;;;;;;3.13;71.72;94029.31;5094518;28;20102;-43
2020/12/05 07:31:14;;;;;;;34.90;21.77;;;;;;;2.89;72.36;94035.34;5094694;28;20109;-43
2020/12/05 07:33:42;;;;;;;31.15;20.92;;;;;;;2.95;72.39;94050.06;5094390;28;20345;-44
2020/12/05 07:36:11;;;;;;;33.10;20.55;;;;;;;3.26;71.27;94054.94;5093620;28;20561;-48
2020/12/05 07:38:40;;;;;;;31.20;20.05;;;;;;;3.14;71.76;94059.47;5094624;28;20555;-44
2020/12/05 07:41:08;;;;;;;32.03;20.30;;;;;;;3.36;70.90;94061.75;5094361;28;20123;-46
2020/12/05 07:43:34;;;;;;;31.83;19.92;;;;;;;3.22;71.38;94063.97;5094511;28;20067;-48
2020/12/05 07:46:07;;;;;;;34.58;21.30;;;;;;;3.11;71.68;94063.59;5093411;28;20417;-49
2020/12/05 07:48:34;;;;;;;31.60;20.67;;;;;;;2.73;72.98;94064.59;5094687;28;20052;-46
2020/12/05 07:51:01;;;;;;;30.80;19.83;;;;;;;2.57;73.78;94055.63;5094173;28;20320;-46
2020/12/05 07:53:34;;;;;;;32.72;19.58;;;;;;;3.09;72.53;94086.41;5094132;28;20078;-48
2020/12/05 07:56:16;;;;;;;28.63;18.40;;;;;;;3.22;71.66;94098.72;5093376;28;20457;-48
2020/12/05 07:58:44;;;;;;;31.17;20.27;;;;;;;3.22;71.65;94099.50;5093548;28;20075;-47
2020/12/05 08:01:15;;;;;;;31.75;19.70;;;;;;;3.02;71.92;94071.72;5093650;28;20168;-48
2020/12/05 08:04:02;;;;;;;33.47;20.23;;;;;;;3.25;71.77;94100.69;5093958;28;20128;-44
2020/12/05 08:06:53;;;;;;;33.75;21.15;;;;;;;3.23;71.89;94109.06;5093444;28;20044;-49
2020/12/05 08:09:31;;;;;;;31.90;20.13;;;;;;;3.03;72.35;94099.22;5093678;28;20139;-45
2020/12/05 08:11:59;;;;;;;30.83;20.88;;;;;;;3.09;72.40;94102.44;5093660;28;20118;-45
2020/12/05 08:14:27;;;;;;;30.17;19.63;;;;;;;2.92;72.98;94101.47;5093658;28;20109;-47
2020/12/05 08:16:56;;;;;;;30.25;20.17;;;;;;;3.04;72.07;94085.50;5093614;28;20113;-49
2020/12/05 08:19:23;;;;;;;31.23;21.00;;;;;;;3.06;72.44;94097.78;5093420;28;20102;-48
2020/12/05 08:21:51;;;;;;;29.98;19.38;;;;;;;3.31;72.13;94104.72;5092911;28;20437;-50
2020/12/05 08:24:19;;;;;;;32.42;20.13;;;;;;;3.51;70.70;94105.78;5093746;28;20501;-48
2020/12/05 08:26:49;;;;;;;35.42;20.98;;;;;;;3.50;70.53;94113.00;5092920;28;20060;-50
2020/12/05 08:29:19;;;;;;;29.35;19.20;;;;;;;3.54;70.70;94123.81;5093523;28;20046;-49
2020/12/05 08:31:46;;;;;;;29.25;19.42;;;;;;;3.39;71.57;94160.00;5093340;28;20144;-49
2020/12/05 08:34:12;;;;;;;30.98;19.88;;;;;;;3.30;71.51;94140.59;5093532;28;20052;-50
2020/12/05 08:36:44;;;;;;;27.20;18.17;;;;;;;3.30;71.65;94137.91;5091316;28;20508;-50
2020/12/05 08:39:15;;;;;;;26.38;17.58;;;;;;;3.51;70.83;94140.56;5092921;28;20079;-50
2020/12/05 08:41:45;;;;;;;26.10;18.02;;;;;;;3.65;70.76;94145.59;5093146;28;20060;-46
2020/12/05 08:44:16;;;;;;;28.05;17.88;;;;;;;3.65;70.62;94172.34;5093184;28;20075;-46
2020/12/05 08:46:43;;;;;;;27.58;18.23;;;;;;;3.68;70.60;94185.03;5092365;28;20086;-45
2020/12/05 08:49:22;;;;;;;23.50;16.67;;;;;;;3.52;70.77;94182.22;5093285;28;20079;-46
2020/12/05 08:51:53;;;;;;;24.75;16.08;;;;;;;4.03;68.59;94209.53;5093114;28;20282;-44
2020/12/05 08:54:20;;;;;;;22.50;15.68;;;;;;;3.54;70.66;94224.66;5092078;28;20470;-47
2020/12/05 08:56:46;;;;;;;25.05;16.65;;;;;;;3.58;70.58;94220.25;5092166;28;20067;-45
2020/12/05 08:59:24;;;;;;;23.98;16.17;;;;;;;3.81;70.24;94218.75;5092824;28;20067;-46
2020/12/05 09:01:53;;;;;;;25.45;16.40;;;;;;;3.99;69.15;94216.63;5093460;28;20063;-45
2020/12/05 09:04:27;;;;;;;23.23;16.10;;;;;;;4.16;68.65;94203.06;5093873;28;20058;-45
2020/12/05 09:07:12;;;;;;;22.92;15.48;;;;;;;4.25;68.58;94202.94;5092710;28;20505;-45
2020/12/05 09:09:40;;;;;;;22.17;14.93;;;;;;;4.26;68.30;94206.41;5093230;28;20047;-47
2020/12/05 09:12:09;;;;;;;21.63;15.43;;;;;;;4.38;67.80;94225.94;5092782;28;20121;-48
2020/12/05 09:14:37;;;;;;;18.63;13.07;;;;;;;3.97;69.13;94216.22;5092999;28;20051;-47
2020/12/05 09:17:21;;;;;;;21.30;14.48;;;;;;;3.75;70.52;94218.16;5091979;28;20468;-47
2020/12/05 09:19:48;;;;;;;21.67;14.13;;;;;;;3.77;70.09;94212.50;5092441;28;20525;-47
2020/12/05 09:22:54;;;;;;;21.35;14.27;;;;;;;3.66;71.18;94212.09;5092869;28;20056;-48
2020/12/05 09:25:35;;;;;;;20.02;13.60;;;;;;;3.89;69.97;94201.78;5090914;28;20040;-47
2020/12/05 09:28:07;;;;;;;18.27;12.88;;;;;;;3.95;69.67;94192.44;5092133;28;20130;-48
2020/12/05 09:30:34;;;;;;;19.35;13.23;;;;;;;4.13;68.85;94194.94;5092202;28;20135;-49
2020/12/05 09:33:17;;;;;;;18.40;12.60;;;;;;;4.33;68.42;94207.44;5091717;28;20048;-49
2020/12/05 09:35:45;;;;;;;18.67;12.30;;;;;;;4.60;67.25;94194.47;5091515;28;20079;-47
2020/12/05 09:38:12;;;;;;;16.77;12.48;;;;;;;4.77;66.79;94196.13;5092048;28;20105;-46
2020/12/05 09:40:39;;;;;;;18.17;13.30;;;;;;;4.73;66.54;94198.69;5092074;28;20082;-51
2020/12/05 09:43:05;;;;;;;16.85;11.73;;;;;;;4.60;66.92;94197.94;5091009;28;20440;-49
2020/12/05 09:45:33;;;;;;;15.82;11.15;;;;;;;4.19;68.16;94175.66;5091695;28;20051;-50
2020/12/05 09:48:00;;;;;;;16.20;11.20;;;;;;;4.63;67.12;94191.13;5092045;28;20056;-50
2020/12/05 09:50:26;;;;;;;16.98;11.40;;;;;;;4.64;66.97;94190.00;5092635;28;20123;-44
2020/12/05 09:52:53;;;;;;;18.35;11.63;;;;;;;4.75;66.90;94190.34;5092202;28;20054;-46
2020/12/05 09:55:19;;;;;;;15.15;10.52;;;;;;;4.96;66.21;94206.25;5091991;28;20071;-49
2020/12/05 09:57:45;;;;;;;15.02;10.35;;;;;;;5.11;65.64;94202.88;5092306;28;20147;-46
2020/12/05 10:00:13;;;;;;;12.77;9.57;;;;;;;5.18;65.50;94200.41;5092424;28;20056;-51
2020/12/05 10:02:40;;;;;;;12.40;9.15;;;;;;;5.25;65.13;94205.94;5090709;28;20044;-47
2020/12/05 10:05:09;;;;;;;13.50;10.05;;;;;;;5.31;65.06;94206.50;5091694;28;20127;-46
2020/12/05 10:07:36;;;;;;;14.38;10.35;;;;;;;5.36;64.97;94212.41;5091165;28;20108;-49
2020/12/05 10:10:04;;;;;;;15.85;10.80;;;;;;;5.17;65.48;94212.25;5092331;28;20055;-49
2020/12/05 10:12:33;;;;;;;14.50;10.45;;;;;;;5.18;65.46;94232.56;5092041;28;20485;-45
2020/12/05 10:14:59;;;;;;;14.57;10.55;;;;;;;5.31;65.24;94250.19;5092079;28;20489;-49
2020/12/05 10:17:26;;;;;;;12.88;9.00;;;;;;;5.10;65.55;94244.19;5091444;28;20056;-50
2020/12/05 10:19:52;;;;;;;14.18;9.70;;;;;;;5.08;65.77;94251.81;5090697;28;20104;-47
2020/12/05 10:22:20;;;;;;;12.40;9.20;;;;;;;4.91;65.88;94240.22;5074478;28;20070;-49
2020/12/05 10:24:48;;;;;;;13.40;10.00;;;;;;;4.89;66.16;94239.75;5091831;28;20098;-48
2020/12/05 10:27:15;;;;;;;13.82;10.52;;;;;;;4.99;66.07;94253.81;5091440;28;20455;-48
2020/12/05 10:29:41;;;;;;;14.30;10.27;;;;;;;5.13;66.38;94248.88;5092225;28;20051;-47
2020/12/05 10:32:07;;;;;;;12.40;9.35;;;;;;;5.30;65.39;94240.59;5091878;28;20471;-49
2020/12/05 10:34:34;;;;;;;12.85;9.23;;;;;;;5.37;65.28;94231.97;5091683;28;20040;-50
2020/12/05 10:37:00;;;;;;;13.50;9.70;;;;;;;5.40;65.07;94231.28;5089953;28;20087;-49
2020/12/05 10:39:27;;;;;;;12.80;9.20;;;;;;;5.43;65.17;94225.25;5073705;28;20131;-47
2020/12/05 10:41:53;;;;;;;11.85;8.45;;;;;;;5.48;64.84;94224.19;5091722;28;20054;-47
2020/12/05 10:44:20;;;;;;;15.25;8.85;;;;;;;5.57;64.45;94230.22;5091604;28;20051;-48
2020/12/05 10:46:48;;;;;;;15.82;11.32;;;;;;;5.48;64.76;94232.25;5094074;28;20048;-47
2020/12/05 10:49:19;;;;;;;21.67;14.98;;;;;;;5.36;64.93;94230.38;5094257;28;20097;-49
2020/12/05 10:51:46;;;;;;;27.00;16.65;;;;;;;5.29;65.29;94225.59;5095364;28;20139;-49
2020/12/05 10:54:14;;;;;;;23.15;17.00;;;;;;;5.30;65.56;94229.84;5095346;28;20044;-52
2020/12/05 10:56:41;;;;;;;25.58;18.30;;;;;;;5.37;65.68;94234.63;5094912;28;20089;-50
2020/12/05 10:59:08;;;;;;;26.85;17.50;;;;;;;5.36;65.93;94225.00;5095492;28;20043;-47
2020/12/05 11:01:34;;;;;;;25.63;18.08;;;;;;;5.46;65.38;94229.94;5094008;28;20466;-48
2020/12/05 11:04:01;;;;;;;26.00;18.05;;;;;;;5.30;65.90;94213.00;5095613;28;20099;-49
2020/12/05 11:06:27;;;;;;;27.65;18.42;;;;;;;5.41;65.97;94230.16;5094411;28;20052;-49
2020/12/05 11:08:55;;;;;;;28.90;19.55;;;;;;;5.16;66.46;94219.50;5094883;28;20074;-51
2020/12/05 11:11:22;;;;;;;27.20;18.90;;;;;;;5.20;66.74;94206.22;5095061;28;20325;-51
2020/12/05 11:13:50;;;;;;;28.83;19.45;;;;;;;5.28;66.50;94226.72;5094942;28;20044;-50
2020/12/05 11:16:24;;;;;;;29.15;19.30;;;;;;;5.14;66.85;94215.59;5094328;28;20044;-48
2020/12/05 11:18:52;;;;;;;27.67;18.45;;;;;;;5.20;67.07;94235.69;5094781;28;20052;-53
2020/12/05 11:21:19;;;;;;;26.85;18.10;;;;;;;5.15;67.59;94236.69;5094824;28;20127;-50
2020/12/05 11:23:47;;;;;;;26.98;18.27;;;;;;;5.22;67.57;94241.50;5094774;28;20056;-49
2020/12/05 11:26:21;;;;;;;28.52;19.77;;;;;;;5.34;67.79;94241.47;5093061;28;20597;-47
2020/12/05 11:28:49;;;;;;;32.42;21.08;;;;;;;5.33;68.03;94231.88;5094901;28;20052;-48
2020/12/05 11:31:16;;;;;;;29.10;19.88;;;;;;;5.23;67.27;94221.63;5095205;28;20459;-44
2020/12/05 11:33:42;;;;;;;26.60;18.48;;;;;;;5.16;68.04;94242.84;5094833;28;20048;-46
2020/12/05 11:36:09;;;;;;;29.00;20.25;;;;;;;5.14;68.37;94232.47;5093827;28;20079;-47
2020/12/05 11:38:37;;;;;;;27.45;18.50;;;;;;;5.06;68.26;94221.88;5094779;28;20106;-47
2020/12/05 11:41:04;;;;;;;27.63;17.88;;;;;;;5.03;68.86;94233.25;5094790;28;20527;-44
2020/12/05 11:43:30;;;;;;;27.60;18.63;;;;;;;4.99;69.13;94235.84;5094957;28;20093;-46